sensor_id;sensor_type;location;lat;lon;timestamp;pressure;altitude;pressure_sealevel;temperature;humidity
24666;BME280;29726;53.532;-1.478;2023-05-29T00:04:51;101900.50;;;18.85;nan
24666;BME280;29726;53.532;-1.478;2023-05-29T00:07:35;101904.00;;;18.80;nan
24666;BME280;29726;53.532;-1.478;2023-05-29T00:10:19;101895.94;;;18.73;nan
24666;BME280;29726;53.532;-1.478;2023-05-29T00:15:47;101893.28;;;18.69;nan
24666;BME280;29726;53.532;-1.478;2023-05-29T00:18:31;101881.59;;;18.62;nan
24666;BME280;29726;53.532;-1.478;2023-05-29T00:23:59;101909.50;;;18.54;nan
24666;BME280;29726;53.532;-1.478;2023-05-29T00:26:43;101900.94;;;18.49;nan
24666;BME280;29726;53.532;-1.478;2023-05-29T00:32:11;101912.84;;;18.39;nan
24666;BME280;29726;53.532;-1.478;2023-05-29T00:34:55;101894.50;;;18.34;nan
24666;BME280;29726;53.532;-1.478;2023-05-29T00:43:07;101945.53;;;18.16;nan
24666;BME280;29726;53.532;-1.478;2023-05-29T00:51:19;101896.41;;;18.14;nan
24666;BME280;29726;53.532;-1.478;2023-05-29T00:54:07;101891.72;;;18.11;nan
24666;BME280;29726;53.532;-1.478;2023-05-29T00:56:52;101902.44;;;18.07;nan
24666;BME280;29726;53.532;-1.478;2023-05-29T00:59:36;101888.41;;;17.98;nan
24666;BME280;29726;53.532;-1.478;2023-05-29T01:02:20;101940.41;;;17.91;nan
24666;BME280;29726;53.532;-1.478;2023-05-29T01:07:50;101888.38;;;17.83;nan
24666;BME280;29726;53.532;-1.478;2023-05-29T01:10:35;101884.03;;;17.73;nan
24666;BME280;29726;53.532;-1.478;2023-05-29T01:13:23;101897.69;;;17.75;nan
24666;BME280;29726;53.532;-1.478;2023-05-29T01:22:12;101911.91;;;17.66;nan
24666;BME280;29726;53.532;-1.478;2023-05-29T01:25:20;101914.59;;;17.60;nan
24666;BME280;29726;53.532;-1.478;2023-05-29T01:28:07;101904.28;;;17.57;nan
24666;BME280;29726;53.532;-1.478;2023-05-29T01:33:40;101910.28;;;17.50;nan
24666;BME280;29726;53.532;-1.478;2023-05-29T01:36:26;101900.13;;;17.44;nan
24666;BME280;29726;53.532;-1.478;2023-05-29T01:39:10;101901.88;;;17.41;nan
24666;BME280;29726;53.532;-1.478;2023-05-29T01:47:23;101911.34;;;17.29;nan
24666;BME280;29726;53.532;-1.478;2023-05-29T01:50:08;101916.38;;;17.25;nan
24666;BME280;29726;53.532;-1.478;2023-05-29T01:55:38;101916.13;;;17.14;nan
24666;BME280;29726;53.532;-1.478;2023-05-29T01:58:23;101907.53;;;17.09;nan
24666;BME280;29726;53.532;-1.478;2023-05-29T02:06:36;101911.97;;;17.01;nan
24666;BME280;29726;53.532;-1.478;2023-05-29T02:09:20;101917.00;;;16.97;nan
24666;BME280;29726;53.532;-1.478;2023-05-29T02:14:51;101898.84;;;16.89;nan
24666;BME280;29726;53.532;-1.478;2023-05-29T02:17:35;101894.34;;;16.82;nan
24666;BME280;29726;53.532;-1.478;2023-05-29T02:20:19;101905.78;;;16.79;nan
24666;BME280;29726;53.532;-1.478;2023-05-29T02:23:03;101908.47;;;16.73;nan
24666;BME280;29726;53.532;-1.478;2023-05-29T02:25:47;101911.00;;;16.72;nan
24666;BME280;29726;53.532;-1.478;2023-05-29T02:28:31;101907.06;;;16.69;nan
24666;BME280;29726;53.532;-1.478;2023-05-29T02:33:59;101901.94;;;16.59;nan
24666;BME280;29726;53.532;-1.478;2023-05-29T02:36:43;101888.69;;;16.50;nan
24666;BME280;29726;53.532;-1.478;2023-05-29T02:42:11;101909.81;;;16.46;nan
24666;BME280;29726;53.532;-1.478;2023-05-29T02:44:55;101902.78;;;16.41;nan
24666;BME280;29726;53.532;-1.478;2023-05-29T02:47:39;101913.28;;;16.41;nan
24666;BME280;29726;53.532;-1.478;2023-05-29T02:50:23;101900.72;;;16.33;nan
24666;BME280;29726;53.532;-1.478;2023-05-29T02:58:35;101910.78;;;16.25;nan
24666;BME280;29726;53.532;-1.478;2023-05-29T03:12:15;101893.91;;;16.07;nan
24666;BME280;29726;53.532;-1.478;2023-05-29T03:17:44;101865.59;;;15.74;nan
24666;BME280;29726;53.532;-1.478;2023-05-29T03:20:28;101904.88;;;15.96;nan
24666;BME280;29726;53.532;-1.478;2023-05-29T03:23:12;101897.81;;;15.91;nan
24666;BME280;29726;53.532;-1.478;2023-05-29T03:25:56;101894.84;;;15.86;nan
24666;BME280;29726;53.532;-1.478;2023-05-29T03:39:36;101903.63;;;15.70;nan
24666;BME280;29726;53.532;-1.478;2023-05-29T03:47:48;101904.53;;;15.58;nan
24666;BME280;29726;53.532;-1.478;2023-05-29T03:53:16;101905.16;;;15.53;nan
24666;BME280;29726;53.532;-1.478;2023-05-29T03:58:44;101909.38;;;15.48;nan
24666;BME280;29726;53.532;-1.478;2023-05-29T04:12:24;101930.78;;;15.37;nan
24666;BME280;29726;53.532;-1.478;2023-05-29T04:20:36;101922.19;;;15.31;nan
24666;BME280;29726;53.532;-1.478;2023-05-29T04:23:20;101920.75;;;15.27;nan
24666;BME280;29726;53.532;-1.478;2023-05-29T04:28:49;101926.22;;;15.30;nan
24666;BME280;29726;53.532;-1.478;2023-05-29T04:39:46;101931.84;;;15.30;nan
24666;BME280;29726;53.532;-1.478;2023-05-29T04:53:32;101932.94;;;15.24;nan
24666;BME280;29726;53.532;-1.478;2023-05-29T04:59:01;101918.81;;;15.15;nan
24666;BME280;29726;53.532;-1.478;2023-05-29T05:01:45;101937.00;;;15.23;nan
24666;BME280;29726;53.532;-1.478;2023-05-29T05:15:27;101936.31;;;15.19;nan
24666;BME280;29726;53.532;-1.478;2023-05-29T05:20:55;101938.06;;;15.16;nan
24666;BME280;29726;53.532;-1.478;2023-05-29T05:26:24;101946.69;;;15.22;nan
24666;BME280;29726;53.532;-1.478;2023-05-29T05:37:21;101951.63;;;15.18;nan
24666;BME280;29726;53.532;-1.478;2023-05-29T05:42:52;101947.31;;;15.26;nan
24666;BME280;29726;53.532;-1.478;2023-05-29T05:45:36;102020.59;;;15.22;nan
24666;BME280;29726;53.532;-1.478;2023-05-29T05:51:09;101952.03;;;15.29;nan
24666;BME280;29726;53.532;-1.478;2023-05-29T05:56:38;101984.78;;;15.14;nan
24666;BME280;29726;53.532;-1.478;2023-05-29T06:02:06;101955.16;;;15.31;nan
24666;BME280;29726;53.532;-1.478;2023-05-29T06:04:50;101958.28;;;15.33;nan
24666;BME280;29726;53.532;-1.478;2023-05-29T06:13:03;101961.44;;;15.35;nan
24666;BME280;29726;53.532;-1.478;2023-05-29T06:26:43;101966.59;;;15.45;nan
24666;BME280;29726;53.532;-1.478;2023-05-29T06:29:26;101978.66;;;15.46;nan
24666;BME280;29726;53.532;-1.478;2023-05-29T06:32:10;101970.69;;;15.44;nan
24666;BME280;29726;53.532;-1.478;2023-05-29T06:34:54;101968.19;;;15.46;nan
24666;BME280;29726;53.532;-1.478;2023-05-29T06:37:39;101960.34;;;15.41;nan
24666;BME280;29726;53.532;-1.478;2023-05-29T06:48:35;101970.22;;;15.55;nan
24666;BME280;29726;53.532;-1.478;2023-05-29T06:51:19;102013.84;;;15.50;nan
24666;BME280;29726;53.532;-1.478;2023-05-29T06:59:30;101987.44;;;15.66;nan
24666;BME280;29726;53.532;-1.478;2023-05-29T07:02:14;101983.25;;;15.70;nan
24666;BME280;29726;53.532;-1.478;2023-05-29T07:04:58;101985.59;;;15.72;nan
24666;BME280;29726;53.532;-1.478;2023-05-29T07:07:42;101982.16;;;15.77;nan
24666;BME280;29726;53.532;-1.478;2023-05-29T07:10:26;101982.78;;;15.81;nan
24666;BME280;29726;53.532;-1.478;2023-05-29T07:13:15;101983.28;;;15.88;nan
24666;BME280;29726;53.532;-1.478;2023-05-29T07:21:27;101988.13;;;16.06;nan
24666;BME280;29726;53.532;-1.478;2023-05-29T07:26:56;101982.03;;;16.16;nan
24666;BME280;29726;53.532;-1.478;2023-05-29T07:32:24;101986.22;;;16.30;nan
24666;BME280;29726;53.532;-1.478;2023-05-29T07:40:37;101990.31;;;16.47;nan
24666;BME280;29726;53.532;-1.478;2023-05-29T07:51:33;102003.75;;;16.70;nan
24666;BME280;29726;53.532;-1.478;2023-05-29T07:57:04;102004.81;;;16.81;nan
24666;BME280;29726;53.532;-1.478;2023-05-29T07:59:52;102007.19;;;16.82;nan
24666;BME280;29726;53.532;-1.478;2023-05-29T08:05:20;102000.25;;;16.92;nan
24666;BME280;29726;53.532;-1.478;2023-05-29T08:08:05;102016.38;;;16.92;nan
24666;BME280;29726;53.532;-1.478;2023-05-29T08:13:33;102016.19;;;17.04;nan
24666;BME280;29726;53.532;-1.478;2023-05-29T08:16:17;102022.94;;;17.07;nan
24666;BME280;29726;53.532;-1.478;2023-05-29T08:19:01;102025.91;;;17.12;nan
24666;BME280;29726;53.532;-1.478;2023-05-29T08:27:13;102029.63;;;17.18;nan
24666;BME280;29726;53.532;-1.478;2023-05-29T08:29:58;102046.22;;;17.25;nan
24666;BME280;29726;53.532;-1.478;2023-05-29T08:32:42;102006.78;;;17.07;nan
24666;BME280;29726;53.532;-1.478;2023-05-29T08:35:26;102028.66;;;17.30;nan
24666;BME280;29726;53.532;-1.478;2023-05-29T08:43:41;102042.91;;;17.45;nan
24666;BME280;29726;53.532;-1.478;2023-05-29T08:46:25;102051.47;;;17.50;nan
24666;BME280;29726;53.532;-1.478;2023-05-29T08:52:02;102047.50;;;17.66;nan
24666;BME280;29726;53.532;-1.478;2023-05-29T08:54:50;102046.34;;;17.72;nan
24666;BME280;29726;53.532;-1.478;2023-05-29T08:57:34;102039.75;;;17.75;nan
24666;BME280;29726;53.532;-1.478;2023-05-29T09:03:07;102039.19;;;17.86;nan
24666;BME280;29726;53.532;-1.478;2023-05-29T09:05:51;102049.34;;;17.92;nan
24666;BME280;29726;53.532;-1.478;2023-05-29T09:11:21;102038.19;;;17.98;nan
24666;BME280;29726;53.532;-1.478;2023-05-29T09:14:06;102043.97;;;18.03;nan
24666;BME280;29726;53.532;-1.478;2023-05-29T09:16:55;102039.88;;;18.04;nan
24666;BME280;29726;53.532;-1.478;2023-05-29T09:19:39;102041.22;;;18.09;nan
24666;BME280;29726;53.532;-1.478;2023-05-29T09:25:08;102040.69;;;18.19;nan
24666;BME280;29726;53.532;-1.478;2023-05-29T09:30:47;102034.31;;;18.33;nan
24666;BME280;29726;53.532;-1.478;2023-05-29T09:33:31;102057.78;;;18.48;nan
24666;BME280;29726;53.532;-1.478;2023-05-29T09:36:22;102032.41;;;18.53;nan
24666;BME280;29726;53.532;-1.478;2023-05-29T09:41:53;102053.13;;;18.74;nan
24666;BME280;29726;53.532;-1.478;2023-05-29T09:44:39;102012.72;;;18.59;nan
24666;BME280;29726;53.532;-1.478;2023-05-29T09:47:24;102041.03;;;18.88;nan
24666;BME280;29726;53.532;-1.478;2023-05-29T09:53:01;102047.28;;;19.06;nan
24666;BME280;29726;53.532;-1.478;2023-05-29T09:55:48;102050.00;;;19.15;nan
24666;BME280;29726;53.532;-1.478;2023-05-29T09:58:34;102038.00;;;19.20;nan
24666;BME280;29726;53.532;-1.478;2023-05-29T10:01:19;102042.31;;;19.30;nan
24666;BME280;29726;53.532;-1.478;2023-05-29T10:06:48;102034.34;;;19.49;nan
24666;BME280;29726;53.532;-1.478;2023-05-29T10:09:38;102034.50;;;19.60;nan
24666;BME280;29726;53.532;-1.478;2023-05-29T10:12:26;102036.66;;;19.65;nan
24666;BME280;29726;53.532;-1.478;2023-05-29T10:18:03;102038.53;;;19.88;nan
24666;BME280;29726;53.532;-1.478;2023-05-29T10:20:52;102027.75;;;19.92;nan
24666;BME280;29726;53.532;-1.478;2023-05-29T10:23:43;102027.72;;;20.06;nan
24666;BME280;29726;53.532;-1.478;2023-05-29T10:26:30;102049.78;;;20.17;nan
24666;BME280;29726;53.532;-1.478;2023-05-29T10:29:35;102044.22;;;20.27;nan
24666;BME280;29726;53.532;-1.478;2023-05-29T10:32:29;102038.69;;;20.38;nan
24666;BME280;29726;53.532;-1.478;2023-05-29T10:38:12;102021.00;;;20.49;nan
24666;BME280;29726;53.532;-1.478;2023-05-29T10:44:39;102033.69;;;20.79;nan
24666;BME280;29726;53.532;-1.478;2023-05-29T10:47:24;102027.59;;;20.86;nan
24666;BME280;29726;53.532;-1.478;2023-05-29T10:50:09;102026.16;;;20.96;nan
24666;BME280;29726;53.532;-1.478;2023-05-29T10:52:53;102024.69;;;21.06;nan
24666;BME280;29726;53.532;-1.478;2023-05-29T10:55:40;102033.81;;;21.15;nan
24666;BME280;29726;53.532;-1.478;2023-05-29T10:58:25;102006.19;;;21.16;nan
24666;BME280;29726;53.532;-1.478;2023-05-29T11:01:09;102000.50;;;21.16;nan
24666;BME280;29726;53.532;-1.478;2023-05-29T11:07:00;102009.78;;;21.47;nan
24666;BME280;29726;53.532;-1.478;2023-05-29T11:09:47;102032.59;;;21.58;nan
24666;BME280;29726;53.532;-1.478;2023-05-29T11:12:33;102036.78;;;21.68;nan
24666;BME280;29726;53.532;-1.478;2023-05-29T11:15:19;101991.22;;;21.57;nan
24666;BME280;29726;53.532;-1.478;2023-05-29T11:18:06;102038.22;;;21.84;nan
24666;BME280;29726;53.532;-1.478;2023-05-29T11:20:57;102026.34;;;21.91;nan
24666;BME280;29726;53.532;-1.478;2023-05-29T11:23:42;102021.19;;;21.95;nan
24666;BME280;29726;53.532;-1.478;2023-05-29T11:29:13;102030.31;;;22.15;nan
24666;BME280;29726;53.532;-1.478;2023-05-29T11:32:01;102035.53;;;22.22;nan
24666;BME280;29726;53.532;-1.478;2023-05-29T11:34:50;102029.34;;;22.29;nan
24666;BME280;29726;53.532;-1.478;2023-05-29T11:40:21;102022.72;;;22.43;nan
24666;BME280;29726;53.532;-1.478;2023-05-29T11:43:05;102012.38;;;22.51;nan
24666;BME280;29726;53.532;-1.478;2023-05-29T11:45:49;102027.38;;;22.57;nan
24666;BME280;29726;53.532;-1.478;2023-05-29T11:48:33;102028.19;;;22.63;nan
24666;BME280;29726;53.532;-1.478;2023-05-29T11:51:17;102022.25;;;22.72;nan
24666;BME280;29726;53.532;-1.478;2023-05-29T11:56:47;102005.41;;;22.68;nan
24666;BME280;29726;53.532;-1.478;2023-05-29T11:59:32;102023.31;;;22.91;nan
24666;BME280;29726;53.532;-1.478;2023-05-29T12:02:16;102028.22;;;22.90;nan
24666;BME280;29726;53.532;-1.478;2023-05-29T12:05:04;102027.22;;;23.04;nan
24666;BME280;29726;53.532;-1.478;2023-05-29T12:07:53;102035.75;;;23.10;nan
24666;BME280;29726;53.532;-1.478;2023-05-29T12:13:29;101985.75;;;23.03;nan
24666;BME280;29726;53.532;-1.478;2023-05-29T12:16:13;102022.81;;;23.20;nan
24666;BME280;29726;53.532;-1.478;2023-05-29T12:18:58;102023.09;;;23.33;nan
24666;BME280;29726;53.532;-1.478;2023-05-29T12:24:27;102018.41;;;23.46;nan
24666;BME280;29726;53.532;-1.478;2023-05-29T12:27:12;102008.28;;;23.51;nan
24666;BME280;29726;53.532;-1.478;2023-05-29T12:30:01;101998.94;;;23.56;nan
24666;BME280;29726;53.532;-1.478;2023-05-29T12:35:31;102020.69;;;23.70;nan
24666;BME280;29726;53.532;-1.478;2023-05-29T12:43:46;102014.44;;;23.87;nan
24666;BME280;29726;53.532;-1.478;2023-05-29T12:46:55;102005.06;;;23.92;nan
24666;BME280;29726;53.532;-1.478;2023-05-29T12:49:39;101997.56;;;23.95;nan
24666;BME280;29726;53.532;-1.478;2023-05-29T12:52:24;102006.34;;;24.02;nan
24666;BME280;29726;53.532;-1.478;2023-05-29T12:55:08;102015.41;;;24.06;nan
24666;BME280;29726;53.532;-1.478;2023-05-29T12:57:53;102003.22;;;24.06;nan
24666;BME280;29726;53.532;-1.478;2023-05-29T13:00:39;102022.13;;;24.14;nan
24666;BME280;29726;53.532;-1.478;2023-05-29T13:03:24;102013.78;;;24.16;nan
24666;BME280;29726;53.532;-1.478;2023-05-29T13:06:10;102010.13;;;24.21;nan
24666;BME280;29726;53.532;-1.478;2023-05-29T13:08:54;101994.28;;;24.26;nan
24666;BME280;29726;53.532;-1.478;2023-05-29T13:11:38;102004.66;;;24.29;nan
24666;BME280;29726;53.532;-1.478;2023-05-29T13:14:22;102001.28;;;24.30;nan
24666;BME280;29726;53.532;-1.478;2023-05-29T13:17:06;102001.00;;;24.34;nan
24666;BME280;29726;53.532;-1.478;2023-05-29T13:19:49;101983.09;;;24.33;nan
24666;BME280;29726;53.532;-1.478;2023-05-29T13:22:33;102007.72;;;24.42;nan
24666;BME280;29726;53.532;-1.478;2023-05-29T13:25:18;101992.41;;;24.39;nan
24666;BME280;29726;53.532;-1.478;2023-05-29T13:28:04;101981.28;;;24.30;nan
24666;BME280;29726;53.532;-1.478;2023-05-29T13:30:48;102009.75;;;24.47;nan
24666;BME280;29726;53.532;-1.478;2023-05-29T13:33:32;102012.84;;;24.49;nan
24666;BME280;29726;53.532;-1.478;2023-05-29T13:36:16;102020.38;;;24.57;nan
24666;BME280;29726;53.532;-1.478;2023-05-29T13:39:00;102025.03;;;24.60;nan
24666;BME280;29726;53.532;-1.478;2023-05-29T13:41:44;102021.88;;;24.64;nan
24666;BME280;29726;53.532;-1.478;2023-05-29T13:47:13;102022.63;;;24.70;nan
24666;BME280;29726;53.532;-1.478;2023-05-29T13:49:57;102016.63;;;24.73;nan
24666;BME280;29726;53.532;-1.478;2023-05-29T13:55:25;102016.06;;;24.80;nan
24666;BME280;29726;53.532;-1.478;2023-05-29T13:58:08;102029.53;;;24.85;nan
24666;BME280;29726;53.532;-1.478;2023-05-29T14:00:52;102002.50;;;24.86;nan
24666;BME280;29726;53.532;-1.478;2023-05-29T14:03:36;102016.75;;;24.92;nan
24666;BME280;29726;53.532;-1.478;2023-05-29T14:06:20;101999.31;;;24.95;nan
24666;BME280;29726;53.532;-1.478;2023-05-29T14:09:04;102014.34;;;25.01;nan
24666;BME280;29726;53.532;-1.478;2023-05-29T14:11:49;101986.91;;;24.87;nan
24666;BME280;29726;53.532;-1.478;2023-05-29T14:14:33;102020.53;;;25.05;nan
24666;BME280;29726;53.532;-1.478;2023-05-29T14:17:18;102010.66;;;25.06;nan
24666;BME280;29726;53.532;-1.478;2023-05-29T14:20:02;102015.03;;;25.13;nan
24666;BME280;29726;53.532;-1.478;2023-05-29T14:22:48;101991.38;;;25.12;nan
24666;BME280;29726;53.532;-1.478;2023-05-29T14:28:16;102018.59;;;25.24;nan
24666;BME280;29726;53.532;-1.478;2023-05-29T14:31:00;102012.84;;;25.30;nan
24666;BME280;29726;53.532;-1.478;2023-05-29T14:33:44;102015.13;;;25.31;nan
24666;BME280;29726;53.532;-1.478;2023-05-29T14:36:28;102017.16;;;25.36;nan
24666;BME280;29726;53.532;-1.478;2023-05-29T14:39:12;101999.25;;;25.36;nan
24666;BME280;29726;53.532;-1.478;2023-05-29T14:41:59;102020.78;;;25.42;nan
24666;BME280;29726;53.532;-1.478;2023-05-29T14:44:44;102005.16;;;25.43;nan
24666;BME280;29726;53.532;-1.478;2023-05-29T14:47:28;102012.13;;;25.48;nan
24666;BME280;29726;53.532;-1.478;2023-05-29T14:50:12;102013.13;;;25.50;nan
24666;BME280;29726;53.532;-1.478;2023-05-29T14:52:56;102005.31;;;25.51;nan
24666;BME280;29726;53.532;-1.478;2023-05-29T14:55:40;102002.72;;;25.53;nan
24666;BME280;29726;53.532;-1.478;2023-05-29T14:58:24;102019.28;;;25.59;nan
24666;BME280;29726;53.532;-1.478;2023-05-29T15:01:08;102011.41;;;25.65;nan
24666;BME280;29726;53.532;-1.478;2023-05-29T15:03:51;102024.34;;;25.48;nan
24666;BME280;29726;53.532;-1.478;2023-05-29T15:09:19;102001.50;;;25.66;nan
24666;BME280;29726;53.532;-1.478;2023-05-29T15:12:05;102020.41;;;25.75;nan
24666;BME280;29726;53.532;-1.478;2023-05-29T15:14:50;102013.38;;;25.76;nan
24666;BME280;29726;53.532;-1.478;2023-05-29T15:17:34;101995.69;;;25.77;nan
24666;BME280;29726;53.532;-1.478;2023-05-29T15:20:19;102003.13;;;25.86;nan
24666;BME280;29726;53.532;-1.478;2023-05-29T15:23:03;102003.41;;;25.82;nan
24666;BME280;29726;53.532;-1.478;2023-05-29T15:25:48;102014.28;;;25.89;nan
24666;BME280;29726;53.532;-1.478;2023-05-29T15:28:33;102007.81;;;25.89;nan
24666;BME280;29726;53.532;-1.478;2023-05-29T15:31:17;102000.22;;;25.91;nan
24666;BME280;29726;53.532;-1.478;2023-05-29T15:34:02;101992.66;;;25.94;nan
24666;BME280;29726;53.532;-1.478;2023-05-29T15:39:30;102016.47;;;26.02;nan
24666;BME280;29726;53.532;-1.478;2023-05-29T15:42:14;101985.84;;;25.97;nan
24666;BME280;29726;53.532;-1.478;2023-05-29T15:47:42;102004.41;;;26.09;nan
24666;BME280;29726;53.532;-1.478;2023-05-29T15:50:26;102015.34;;;26.10;nan
24666;BME280;29726;53.532;-1.478;2023-05-29T15:53:10;102004.91;;;26.13;nan
24666;BME280;29726;53.532;-1.478;2023-05-29T15:55:54;102002.28;;;26.15;nan
24666;BME280;29726;53.532;-1.478;2023-05-29T15:58:38;102002.28;;;26.15;nan
24666;BME280;29726;53.532;-1.478;2023-05-29T16:01:22;102008.47;;;26.19;nan
24666;BME280;29726;53.532;-1.478;2023-05-29T16:04:06;102007.38;;;26.22;nan
24666;BME280;29726;53.532;-1.478;2023-05-29T16:06:50;102003.97;;;26.23;nan
24666;BME280;29726;53.532;-1.478;2023-05-29T16:12:18;102001.03;;;26.29;nan
24666;BME280;29726;53.532;-1.478;2023-05-29T16:15:02;101997.94;;;26.27;nan
24666;BME280;29726;53.532;-1.478;2023-05-29T16:17:47;101986.47;;;26.27;nan
24666;BME280;29726;53.532;-1.478;2023-05-29T16:20:31;101981.66;;;26.16;nan
24666;BME280;29726;53.532;-1.478;2023-05-29T16:23:15;102011.09;;;26.35;nan
24666;BME280;29726;53.532;-1.478;2023-05-29T16:26:02;102006.91;;;26.36;nan
24666;BME280;29726;53.532;-1.478;2023-05-29T16:28:46;102002.50;;;26.35;nan
24666;BME280;29726;53.532;-1.478;2023-05-29T16:31:31;101998.88;;;26.35;nan
24666;BME280;29726;53.532;-1.478;2023-05-29T16:37:00;102014.19;;;26.37;nan
24666;BME280;29726;53.532;-1.478;2023-05-29T16:39:44;102010.81;;;26.39;nan
24666;BME280;29726;53.532;-1.478;2023-05-29T16:45:12;102014.97;;;26.38;nan
24666;BME280;29726;53.532;-1.478;2023-05-29T16:47:56;102009.09;;;26.30;nan
24666;BME280;29726;53.532;-1.478;2023-05-29T16:50:40;102027.19;;;26.38;nan
24666;BME280;29726;53.532;-1.478;2023-05-29T16:53:24;102023.81;;;26.40;nan
24666;BME280;29726;53.532;-1.478;2023-05-29T16:56:08;102041.28;;;26.36;nan
24666;BME280;29726;53.532;-1.478;2023-05-29T16:58:53;102027.19;;;26.38;nan
24666;BME280;29726;53.532;-1.478;2023-05-29T17:01:37;102016.53;;;26.39;nan
24666;BME280;29726;53.532;-1.478;2023-05-29T17:04:21;102023.34;;;26.36;nan
24666;BME280;29726;53.532;-1.478;2023-05-29T17:07:06;102016.81;;;26.35;nan
24666;BME280;29726;53.532;-1.478;2023-05-29T17:09:50;102024.41;;;26.33;nan
24666;BME280;29726;53.532;-1.478;2023-05-29T17:15:18;102021.00;;;26.34;nan
24666;BME280;29726;53.532;-1.478;2023-05-29T17:18:02;102021.53;;;26.33;nan
24666;BME280;29726;53.532;-1.478;2023-05-29T17:23:29;102017.91;;;26.32;nan
24666;BME280;29726;53.532;-1.478;2023-05-29T17:26:14;101990.19;;;26.22;nan
24666;BME280;29726;53.532;-1.478;2023-05-29T17:31:42;102015.91;;;26.27;nan
24666;BME280;29726;53.532;-1.478;2023-05-29T17:34:27;102013.56;;;26.26;nan
24666;BME280;29726;53.532;-1.478;2023-05-29T17:37:11;102014.66;;;26.23;nan
24666;BME280;29726;53.532;-1.478;2023-05-29T17:45:24;102041.28;;;26.18;nan
24666;BME280;29726;53.532;-1.478;2023-05-29T17:48:07;102017.34;;;26.15;nan
24666;BME280;29726;53.532;-1.478;2023-05-29T17:50:51;102028.56;;;26.13;nan
24666;BME280;29726;53.532;-1.478;2023-05-29T17:53:35;102028.88;;;26.10;nan
24666;BME280;29726;53.532;-1.478;2023-05-29T17:56:19;102031.50;;;26.08;nan
24666;BME280;29726;53.532;-1.478;2023-05-29T17:59:04;102027.19;;;26.01;nan
24666;BME280;29726;53.532;-1.478;2023-05-29T18:01:48;102035.22;;;26.03;nan
24666;BME280;29726;53.532;-1.478;2023-05-29T18:04:32;102023.91;;;25.92;nan
24666;BME280;29726;53.532;-1.478;2023-05-29T18:07:16;102017.38;;;25.91;nan
24666;BME280;29726;53.532;-1.478;2023-05-29T18:10:03;102024.66;;;25.92;nan
24666;BME280;29726;53.532;-1.478;2023-05-29T18:12:47;102032.53;;;25.86;nan
24666;BME280;29726;53.532;-1.478;2023-05-29T18:15:31;102042.44;;;25.85;nan
24666;BME280;29726;53.532;-1.478;2023-05-29T18:18:15;102048.44;;;25.82;nan
24666;BME280;29726;53.532;-1.478;2023-05-29T18:20:59;102024.41;;;25.66;nan
24666;BME280;29726;53.532;-1.478;2023-05-29T18:23:44;102043.59;;;25.71;nan
24666;BME280;29726;53.532;-1.478;2023-05-29T18:26:30;102038.19;;;25.68;nan
24666;BME280;29726;53.532;-1.478;2023-05-29T18:29:14;102044.69;;;25.68;nan
24666;BME280;29726;53.532;-1.478;2023-05-29T18:31:58;102052.53;;;25.62;nan
24666;BME280;29726;53.532;-1.478;2023-05-29T18:34:43;102063.19;;;25.62;nan
24666;BME280;29726;53.532;-1.478;2023-05-29T18:37:27;102054.69;;;25.57;nan
24666;BME280;29726;53.532;-1.478;2023-05-29T18:40:11;102060.69;;;25.53;nan
24666;BME280;29726;53.532;-1.478;2023-05-29T18:42:56;102061.78;;;25.50;nan
24666;BME280;29726;53.532;-1.478;2023-05-29T18:45:40;102042.66;;;25.34;nan
24666;BME280;29726;53.532;-1.478;2023-05-29T18:48:24;102053.81;;;25.38;nan
24666;BME280;29726;53.532;-1.478;2023-05-29T18:51:09;102046.84;;;25.33;nan
24666;BME280;29726;53.532;-1.478;2023-05-29T18:53:54;102053.63;;;25.30;nan
24666;BME280;29726;53.532;-1.478;2023-05-29T18:56:38;102057.56;;;25.27;nan
24666;BME280;29726;53.532;-1.478;2023-05-29T18:59:22;102066.41;;;25.24;nan
24666;BME280;29726;53.532;-1.478;2023-05-29T19:02:06;102058.66;;;25.19;nan
24666;BME280;29726;53.532;-1.478;2023-05-29T19:04:49;102058.91;;;25.15;nan
24666;BME280;29726;53.532;-1.478;2023-05-29T19:07:33;102064.69;;;25.10;nan
24666;BME280;29726;53.532;-1.478;2023-05-29T19:10:18;102064.97;;;25.06;nan
24666;BME280;29726;53.532;-1.478;2023-05-29T19:13:02;102068.91;;;25.03;nan
24666;BME280;29726;53.532;-1.478;2023-05-29T19:15:46;102070.50;;;24.93;nan
24666;BME280;29726;53.532;-1.478;2023-05-29T19:23:58;102070.31;;;24.86;nan
24666;BME280;29726;53.532;-1.478;2023-05-29T19:26:42;102070.34;;;24.80;nan
24666;BME280;29726;53.532;-1.478;2023-05-29T19:29:26;102071.44;;;24.72;nan
24666;BME280;29726;53.532;-1.478;2023-05-29T19:34:54;102073.06;;;24.62;nan
24666;BME280;29726;53.532;-1.478;2023-05-29T19:37:39;102068.38;;;24.59;nan
24666;BME280;29726;53.532;-1.478;2023-05-29T19:40:24;102071.28;;;24.53;nan
24666;BME280;29726;53.532;-1.478;2023-05-29T19:43:08;102070.75;;;24.49;nan
24666;BME280;29726;53.532;-1.478;2023-05-29T19:45:54;102082.47;;;24.46;nan
24666;BME280;29726;53.532;-1.478;2023-05-29T19:48:38;102073.16;;;24.40;nan
24666;BME280;29726;53.532;-1.478;2023-05-29T19:51:22;102079.13;;;24.36;nan
24666;BME280;29726;53.532;-1.478;2023-05-29T19:56:50;102117.56;;;24.24;nan
24666;BME280;29726;53.532;-1.478;2023-05-29T20:05:04;102096.09;;;24.07;nan
24666;BME280;29726;53.532;-1.478;2023-05-29T20:07:48;102095.84;;;24.05;nan
24666;BME280;29726;53.532;-1.478;2023-05-29T20:10:32;102091.97;;;23.97;nan
24666;BME280;29726;53.532;-1.478;2023-05-29T20:13:16;102101.34;;;23.92;nan
24666;BME280;29726;53.532;-1.478;2023-05-29T20:18:44;102096.66;;;23.78;nan
24666;BME280;29726;53.532;-1.478;2023-05-29T20:24:13;102094.84;;;23.70;nan
24666;BME280;29726;53.532;-1.478;2023-05-29T20:29:41;102115.09;;;23.61;nan
24666;BME280;29726;53.532;-1.478;2023-05-29T20:32:25;102109.38;;;23.50;nan
24666;BME280;29726;53.532;-1.478;2023-05-29T20:35:10;102116.13;;;23.47;nan
24666;BME280;29726;53.532;-1.478;2023-05-29T20:37:55;102118.97;;;23.41;nan
24666;BME280;29726;53.532;-1.478;2023-05-29T20:40:40;102108.88;;;23.35;nan